Terminal Aerodrome Forecast
Issued by NWS Rapid City, SD

Home | Current Version | Previous Version | Text Only | Print | Product List | Glossary Off
Versions: 1 2 3 4 5 6 7 8 9 10 11 12 13 14 15 16 17 18 19 20 21 22 23 24

000
FTUS43 KUNR 281121 AAD
TAFRAP
TAF AMD
KRAP 281121Z 2811/2906 35012KT 4SM -SNDZ BR OVC003
     FM281600 03008KT P6SM OVC009
     FM290300 01009KT 2SM -DZ BR OVC005=

USA.gov is the U.S. government's official web portal to all federal, state and local government web resources and services.